sensor_id;sensor_type;location;lat;lon;timestamp;temperature;humidity
20706;DHT22;10514;49.468;11.044;2023-09-19T00:00:23;16.30;96.70
20706;DHT22;10514;49.468;11.044;2023-09-19T00:02:55;16.30;96.40
20706;DHT22;10514;49.468;11.044;2023-09-19T00:05:24;16.30;96.40
20706;DHT22;10514;49.468;11.044;2023-09-19T00:07:54;16.30;96.10
20706;DHT22;10514;49.468;11.044;2023-09-19T00:10:29;16.30;96.00
20706;DHT22;10514;49.468;11.044;2023-09-19T00:13:01;16.20;95.90
20706;DHT22;10514;49.468;11.044;2023-09-19T00:15:29;16.10;96.00
20706;DHT22;10514;49.468;11.044;2023-09-19T00:17:55;16.10;96.00
20706;DHT22;10514;49.468;11.044;2023-09-19T00:20:22;16.10;96.00
20706;DHT22;10514;49.468;11.044;2023-09-19T00:22:50;16.10;96.00
20706;DHT22;10514;49.468;11.044;2023-09-19T00:25:20;16.00;96.00
20706;DHT22;10514;49.468;11.044;2023-09-19T00:27:48;16.10;95.90
20706;DHT22;10514;49.468;11.044;2023-09-19T00:30:17;16.10;96.00
20706;DHT22;10514;49.468;11.044;2023-09-19T00:32:47;16.00;96.00
20706;DHT22;10514;49.468;11.044;2023-09-19T00:35:14;16.00;96.30
20706;DHT22;10514;49.468;11.044;2023-09-19T00:37:41;16.00;96.30
20706;DHT22;10514;49.468;11.044;2023-09-19T00:40:10;15.90;96.40
20706;DHT22;10514;49.468;11.044;2023-09-19T00:42:40;15.90;96.40
20706;DHT22;10514;49.468;11.044;2023-09-19T00:45:07;15.90;96.70
20706;DHT22;10514;49.468;11.044;2023-09-19T00:47:35;15.80;96.70
20706;DHT22;10514;49.468;11.044;2023-09-19T00:50:00;15.80;96.60
20706;DHT22;10514;49.468;11.044;2023-09-19T00:52:27;15.80;96.70
20706;DHT22;10514;49.468;11.044;2023-09-19T00:54:52;15.80;96.90
20706;DHT22;10514;49.468;11.044;2023-09-19T00:57:18;15.70;97.00
20706;DHT22;10514;49.468;11.044;2023-09-19T00:59:45;15.70;97.00
20706;DHT22;10514;49.468;11.044;2023-09-19T01:02:14;15.70;97.10
20706;DHT22;10514;49.468;11.044;2023-09-19T01:04:40;15.70;97.20
20706;DHT22;10514;49.468;11.044;2023-09-19T01:07:06;15.60;97.20
20706;DHT22;10514;49.468;11.044;2023-09-19T01:09:33;15.60;97.20
20706;DHT22;10514;49.468;11.044;2023-09-19T01:12:02;15.60;97.30
20706;DHT22;10514;49.468;11.044;2023-09-19T01:14:42;15.60;97.30
20706;DHT22;10514;49.468;11.044;2023-09-19T01:17:25;15.60;97.40
20706;DHT22;10514;49.468;11.044;2023-09-19T01:20:15;15.50;97.40
20706;DHT22;10514;49.468;11.044;2023-09-19T01:25:47;15.50;97.40
20706;DHT22;10514;49.468;11.044;2023-09-19T01:28:52;15.50;97.40
20706;DHT22;10514;49.468;11.044;2023-09-19T01:31:22;15.50;97.40
20706;DHT22;10514;49.468;11.044;2023-09-19T01:33:57;15.50;97.50
20706;DHT22;10514;49.468;11.044;2023-09-19T01:36:28;15.50;97.40
20706;DHT22;10514;49.468;11.044;2023-09-19T01:38:54;15.50;97.40
20706;DHT22;10514;49.468;11.044;2023-09-19T01:42:11;15.50;97.30
20706;DHT22;10514;49.468;11.044;2023-09-19T01:44:21;15.60;97.00
20706;DHT22;10514;49.468;11.044;2023-09-19T01:46:48;15.70;96.60
20706;DHT22;10514;49.468;11.044;2023-09-19T01:49:22;15.70;96.60
20706;DHT22;10514;49.468;11.044;2023-09-19T01:52:14;15.80;96.60
20706;DHT22;10514;49.468;11.044;2023-09-19T01:55:06;15.80;96.70
20706;DHT22;10514;49.468;11.044;2023-09-19T01:58:21;15.80;96.70
20706;DHT22;10514;49.468;11.044;2023-09-19T02:00:22;15.80;96.80
20706;DHT22;10514;49.468;11.044;2023-09-19T02:02:49;15.90;96.80
20706;DHT22;10514;49.468;11.044;2023-09-19T02:05:23;15.90;96.80
20706;DHT22;10514;49.468;11.044;2023-09-19T02:07:50;15.90;96.90
20706;DHT22;10514;49.468;11.044;2023-09-19T02:10:15;15.90;96.80
20706;DHT22;10514;49.468;11.044;2023-09-19T02:12:42;15.90;96.90
20706;DHT22;10514;49.468;11.044;2023-09-19T02:15:08;16.00;96.90
20706;DHT22;10514;49.468;11.044;2023-09-19T02:17:34;16.00;96.90
20706;DHT22;10514;49.468;11.044;2023-09-19T02:20:00;16.00;97.00
20706;DHT22;10514;49.468;11.044;2023-09-19T02:22:26;16.00;96.90
20706;DHT22;10514;49.468;11.044;2023-09-19T02:24:52;16.00;97.00
20706;DHT22;10514;49.468;11.044;2023-09-19T02:27:19;16.00;97.00
20706;DHT22;10514;49.468;11.044;2023-09-19T02:29:44;16.00;96.90
20706;DHT22;10514;49.468;11.044;2023-09-19T02:32:10;16.00;96.50
20706;DHT22;10514;49.468;11.044;2023-09-19T02:34:36;16.00;96.30
20706;DHT22;10514;49.468;11.044;2023-09-19T02:37:05;16.00;96.70
20706;DHT22;10514;49.468;11.044;2023-09-19T02:39:31;16.00;96.30
20706;DHT22;10514;49.468;11.044;2023-09-19T02:41:57;16.10;96.20
20706;DHT22;10514;49.468;11.044;2023-09-19T02:44:23;16.00;96.30
20706;DHT22;10514;49.468;11.044;2023-09-19T02:46:49;16.10;95.90
20706;DHT22;10514;49.468;11.044;2023-09-19T02:49:15;16.10;95.80
20706;DHT22;10514;49.468;11.044;2023-09-19T02:51:41;16.10;95.80
20706;DHT22;10514;49.468;11.044;2023-09-19T02:54:07;16.10;95.80
20706;DHT22;10514;49.468;11.044;2023-09-19T02:56:32;16.10;95.70
20706;DHT22;10514;49.468;11.044;2023-09-19T02:58:58;16.00;95.60
20706;DHT22;10514;49.468;11.044;2023-09-19T03:01:26;16.10;95.30
20706;DHT22;10514;49.468;11.044;2023-09-19T03:03:52;16.10;95.50
20706;DHT22;10514;49.468;11.044;2023-09-19T03:06:19;16.10;95.40
20706;DHT22;10514;49.468;11.044;2023-09-19T03:08:45;16.00;95.30
20706;DHT22;10514;49.468;11.044;2023-09-19T03:11:12;16.10;95.40
20706;DHT22;10514;49.468;11.044;2023-09-19T03:13:40;16.10;95.30
20706;DHT22;10514;49.468;11.044;2023-09-19T03:16:07;16.10;95.40
20706;DHT22;10514;49.468;11.044;2023-09-19T03:18:36;16.10;95.30
20706;DHT22;10514;49.468;11.044;2023-09-19T03:21:02;16.10;95.10
20706;DHT22;10514;49.468;11.044;2023-09-19T03:23:28;16.00;95.10
20706;DHT22;10514;49.468;11.044;2023-09-19T03:25:57;16.00;95.10
20706;DHT22;10514;49.468;11.044;2023-09-19T03:28:24;16.00;95.10
20706;DHT22;10514;49.468;11.044;2023-09-19T03:31:03;16.00;95.10
20706;DHT22;10514;49.468;11.044;2023-09-19T03:33:29;15.90;95.00
20706;DHT22;10514;49.468;11.044;2023-09-19T03:35:57;15.90;95.10
20706;DHT22;10514;49.468;11.044;2023-09-19T03:38:25;15.90;95.30
20706;DHT22;10514;49.468;11.044;2023-09-19T03:40:51;15.90;95.30
20706;DHT22;10514;49.468;11.044;2023-09-19T03:43:16;15.90;95.30
20706;DHT22;10514;49.468;11.044;2023-09-19T03:45:43;15.80;95.30
20706;DHT22;10514;49.468;11.044;2023-09-19T03:48:09;15.80;95.30
20706;DHT22;10514;49.468;11.044;2023-09-19T03:50:35;15.80;95.40
20706;DHT22;10514;49.468;11.044;2023-09-19T03:53:00;15.80;95.40
20706;DHT22;10514;49.468;11.044;2023-09-19T03:55:26;15.80;95.40
20706;DHT22;10514;49.468;11.044;2023-09-19T03:57:52;15.70;95.40
20706;DHT22;10514;49.468;11.044;2023-09-19T04:00:18;15.70;95.50
20706;DHT22;10514;49.468;11.044;2023-09-19T04:02:47;15.70;95.60
20706;DHT22;10514;49.468;11.044;2023-09-19T04:05:12;15.70;95.60
20706;DHT22;10514;49.468;11.044;2023-09-19T04:07:38;15.60;95.50
20706;DHT22;10514;49.468;11.044;2023-09-19T04:10:03;15.60;95.70
20706;DHT22;10514;49.468;11.044;2023-09-19T04:12:29;15.60;95.70
20706;DHT22;10514;49.468;11.044;2023-09-19T04:14:55;15.60;95.80
20706;DHT22;10514;49.468;11.044;2023-09-19T04:17:20;15.60;95.90
20706;DHT22;10514;49.468;11.044;2023-09-19T04:19:46;15.60;96.00
20706;DHT22;10514;49.468;11.044;2023-09-19T04:22:11;15.50;95.90
20706;DHT22;10514;49.468;11.044;2023-09-19T04:24:38;15.50;96.00
20706;DHT22;10514;49.468;11.044;2023-09-19T04:27:04;15.50;96.10
20706;DHT22;10514;49.468;11.044;2023-09-19T04:29:30;15.50;96.20
20706;DHT22;10514;49.468;11.044;2023-09-19T04:31:56;15.50;96.00
20706;DHT22;10514;49.468;11.044;2023-09-19T04:34:24;15.50;96.10
20706;DHT22;10514;49.468;11.044;2023-09-19T04:36:50;15.50;96.20
20706;DHT22;10514;49.468;11.044;2023-09-19T04:39:16;15.50;96.30
20706;DHT22;10514;49.468;11.044;2023-09-19T04:41:43;15.50;96.30
20706;DHT22;10514;49.468;11.044;2023-09-19T04:44:11;15.50;96.50
20706;DHT22;10514;49.468;11.044;2023-09-19T04:46:38;15.50;96.40
20706;DHT22;10514;49.468;11.044;2023-09-19T04:49:03;15.60;96.30
20706;DHT22;10514;49.468;11.044;2023-09-19T04:51:28;15.60;96.30
20706;DHT22;10514;49.468;11.044;2023-09-19T04:53:59;15.60;96.20
20706;DHT22;10514;49.468;11.044;2023-09-19T04:56:25;15.60;96.10
20706;DHT22;10514;49.468;11.044;2023-09-19T04:58:50;15.70;96.10
20706;DHT22;10514;49.468;11.044;2023-09-19T05:01:16;15.70;96.00
20706;DHT22;10514;49.468;11.044;2023-09-19T05:03:41;15.70;95.90
20706;DHT22;10514;49.468;11.044;2023-09-19T05:06:07;15.80;95.70
20706;DHT22;10514;49.468;11.044;2023-09-19T05:08:33;15.70;95.60
20706;DHT22;10514;49.468;11.044;2023-09-19T05:11:01;15.80;95.60
20706;DHT22;10514;49.468;11.044;2023-09-19T05:13:27;15.80;95.50
20706;DHT22;10514;49.468;11.044;2023-09-19T05:15:52;15.80;95.60
20706;DHT22;10514;49.468;11.044;2023-09-19T05:18:18;15.90;95.50
20706;DHT22;10514;49.468;11.044;2023-09-19T05:20:43;15.90;95.50
20706;DHT22;10514;49.468;11.044;2023-09-19T05:23:09;15.90;95.40
20706;DHT22;10514;49.468;11.044;2023-09-19T05:25:37;15.90;95.40
20706;DHT22;10514;49.468;11.044;2023-09-19T05:28:05;16.00;95.50
20706;DHT22;10514;49.468;11.044;2023-09-19T05:30:31;16.00;95.30
20706;DHT22;10514;49.468;11.044;2023-09-19T05:32:57;16.00;95.30
20706;DHT22;10514;49.468;11.044;2023-09-19T05:35:24;16.00;95.30
20706;DHT22;10514;49.468;11.044;2023-09-19T05:37:51;16.00;95.20
20706;DHT22;10514;49.468;11.044;2023-09-19T05:40:17;16.10;95.20
20706;DHT22;10514;49.468;11.044;2023-09-19T05:42:43;16.10;95.20
20706;DHT22;10514;49.468;11.044;2023-09-19T05:45:10;16.10;95.20
20706;DHT22;10514;49.468;11.044;2023-09-19T05:47:38;16.10;95.30
20706;DHT22;10514;49.468;11.044;2023-09-19T05:50:04;16.10;95.20
20706;DHT22;10514;49.468;11.044;2023-09-19T05:52:30;16.20;95.10
20706;DHT22;10514;49.468;11.044;2023-09-19T05:54:56;16.20;95.00
20706;DHT22;10514;49.468;11.044;2023-09-19T05:57:21;16.20;94.90
20706;DHT22;10514;49.468;11.044;2023-09-19T05:59:47;16.20;94.90
20706;DHT22;10514;49.468;11.044;2023-09-19T06:02:16;16.20;94.80
20706;DHT22;10514;49.468;11.044;2023-09-19T06:04:41;16.20;94.80
20706;DHT22;10514;49.468;11.044;2023-09-19T06:07:07;16.30;94.80
20706;DHT22;10514;49.468;11.044;2023-09-19T06:09:32;16.30;94.70
20706;DHT22;10514;49.468;11.044;2023-09-19T06:11:59;16.40;94.60
20706;DHT22;10514;49.468;11.044;2023-09-19T06:14:28;16.40;94.40
20706;DHT22;10514;49.468;11.044;2023-09-19T06:16:54;16.50;94.20
20706;DHT22;10514;49.468;11.044;2023-09-19T06:19:20;16.50;94.10
20706;DHT22;10514;49.468;11.044;2023-09-19T06:21:48;16.60;94.00
20706;DHT22;10514;49.468;11.044;2023-09-19T06:24:14;16.60;93.90
20706;DHT22;10514;49.468;11.044;2023-09-19T06:26:40;16.60;93.60
20706;DHT22;10514;49.468;11.044;2023-09-19T06:29:05;16.60;93.70
20706;DHT22;10514;49.468;11.044;2023-09-19T06:31:33;16.70;93.60
20706;DHT22;10514;49.468;11.044;2023-09-19T06:33:58;16.70;93.50
20706;DHT22;10514;49.468;11.044;2023-09-19T06:36:24;16.70;93.20
20706;DHT22;10514;49.468;11.044;2023-09-19T06:38:50;16.90;93.50
20706;DHT22;10514;49.468;11.044;2023-09-19T06:41:19;17.00;93.20
20706;DHT22;10514;49.468;11.044;2023-09-19T06:43:45;17.20;92.80
20706;DHT22;10514;49.468;11.044;2023-09-19T06:46:10;17.30;92.30
20706;DHT22;10514;49.468;11.044;2023-09-19T06:48:38;17.30;91.80
20706;DHT22;10514;49.468;11.044;2023-09-19T06:51:03;17.40;91.90
20706;DHT22;10514;49.468;11.044;2023-09-19T06:53:33;17.50;91.70
20706;DHT22;10514;49.468;11.044;2023-09-19T06:56:01;17.60;91.40
20706;DHT22;10514;49.468;11.044;2023-09-19T06:58:27;17.70;91.20
20706;DHT22;10514;49.468;11.044;2023-09-19T07:00:52;17.80;91.20
20706;DHT22;10514;49.468;11.044;2023-09-19T07:03:19;18.00;90.00
20706;DHT22;10514;49.468;11.044;2023-09-19T07:05:50;18.30;87.70
20706;DHT22;10514;49.468;11.044;2023-09-19T07:08:16;18.90;79.80
20706;DHT22;10514;49.468;11.044;2023-09-19T07:10:42;19.40;77.90
20706;DHT22;10514;49.468;11.044;2023-09-19T07:13:14;19.90;76.90
20706;DHT22;10514;49.468;11.044;2023-09-19T07:15:43;20.60;74.30
20706;DHT22;10514;49.468;11.044;2023-09-19T07:18:13;21.60;70.50
20706;DHT22;10514;49.468;11.044;2023-09-19T07:20:40;22.60;66.10
20706;DHT22;10514;49.468;11.044;2023-09-19T07:23:14;23.20;62.50
20706;DHT22;10514;49.468;11.044;2023-09-19T07:25:40;23.50;59.10
20706;DHT22;10514;49.468;11.044;2023-09-19T07:28:06;24.30;59.00
20706;DHT22;10514;49.468;11.044;2023-09-19T07:30:31;24.60;55.70
20706;DHT22;10514;49.468;11.044;2023-09-19T07:32:57;24.50;53.20
20706;DHT22;10514;49.468;11.044;2023-09-19T07:35:22;24.60;54.40
20706;DHT22;10514;49.468;11.044;2023-09-19T07:37:49;24.70;53.80
20706;DHT22;10514;49.468;11.044;2023-09-19T07:40:18;24.60;54.40
20706;DHT22;10514;49.468;11.044;2023-09-19T07:42:45;24.30;55.00
20706;DHT22;10514;49.468;11.044;2023-09-19T07:45:12;24.00;56.30
20706;DHT22;10514;49.468;11.044;2023-09-19T07:47:49;23.80;56.40
20706;DHT22;10514;49.468;11.044;2023-09-19T07:50:16;23.50;56.90
20706;DHT22;10514;49.468;11.044;2023-09-19T07:52:44;23.00;58.00
20706;DHT22;10514;49.468;11.044;2023-09-19T07:55:10;22.50;58.30
20706;DHT22;10514;49.468;11.044;2023-09-19T07:57:37;22.10;60.10
20706;DHT22;10514;49.468;11.044;2023-09-19T08:00:03;21.60;60.80
20706;DHT22;10514;49.468;11.044;2023-09-19T08:02:43;21.50;61.60
20706;DHT22;10514;49.468;11.044;2023-09-19T08:05:10;21.60;61.40
20706;DHT22;10514;49.468;11.044;2023-09-19T08:07:41;21.70;60.10
20706;DHT22;10514;49.468;11.044;2023-09-19T08:10:08;21.90;61.50
20706;DHT22;10514;49.468;11.044;2023-09-19T08:12:39;22.10;61.10
20706;DHT22;10514;49.468;11.044;2023-09-19T08:15:15;22.10;61.00
20706;DHT22;10514;49.468;11.044;2023-09-19T08:17:41;21.90;60.70
20706;DHT22;10514;49.468;11.044;2023-09-19T08:20:07;21.90;62.10
20706;DHT22;10514;49.468;11.044;2023-09-19T08:22:33;21.70;61.90
20706;DHT22;10514;49.468;11.044;2023-09-19T08:24:58;21.70;63.40
20706;DHT22;10514;49.468;11.044;2023-09-19T08:27:24;21.70;62.90
20706;DHT22;10514;49.468;11.044;2023-09-19T08:29:53;22.00;63.30
20706;DHT22;10514;49.468;11.044;2023-09-19T08:32:18;22.30;62.10
20706;DHT22;10514;49.468;11.044;2023-09-19T08:34:49;22.70;62.90
20706;DHT22;10514;49.468;11.044;2023-09-19T08:37:15;23.10;61.80
20706;DHT22;10514;49.468;11.044;2023-09-19T08:39:42;23.50;59.30
20706;DHT22;10514;49.468;11.044;2023-09-19T08:42:08;24.10;56.80
20706;DHT22;10514;49.468;11.044;2023-09-19T08:44:37;24.80;55.30
20706;DHT22;10514;49.468;11.044;2023-09-19T08:47:10;25.20;55.00
20706;DHT22;10514;49.468;11.044;2023-09-19T08:52:28;24.60;53.20
20706;DHT22;10514;49.468;11.044;2023-09-19T08:54:59;24.50;54.60
20706;DHT22;10514;49.468;11.044;2023-09-19T08:57:29;24.20;54.90
20706;DHT22;10514;49.468;11.044;2023-09-19T08:59:55;24.20;55.50
20706;DHT22;10514;49.468;11.044;2023-09-19T09:02:22;24.50;54.60
20706;DHT22;10514;49.468;11.044;2023-09-19T09:04:49;24.70;53.90
20706;DHT22;10514;49.468;11.044;2023-09-19T09:07:16;24.50;53.40
20706;DHT22;10514;49.468;11.044;2023-09-19T09:09:44;24.70;53.90
20706;DHT22;10514;49.468;11.044;2023-09-19T09:12:14;24.40;54.50
20706;DHT22;10514;49.468;11.044;2023-09-19T09:14:43;24.00;56.00
20706;DHT22;10514;49.468;11.044;2023-09-19T09:17:10;23.50;56.10
20706;DHT22;10514;49.468;11.044;2023-09-19T09:19:37;22.80;58.30
20706;DHT22;10514;49.468;11.044;2023-09-19T09:22:07;22.10;59.50
20706;DHT22;10514;49.468;11.044;2023-09-19T09:24:33;21.70;61.40
20706;DHT22;10514;49.468;11.044;2023-09-19T09:26:59;21.40;61.90
20706;DHT22;10514;49.468;11.044;2023-09-19T09:29:44;21.00;62.90
20706;DHT22;10514;49.468;11.044;2023-09-19T09:32:28;20.90;62.20
20706;DHT22;10514;49.468;11.044;2023-09-19T09:35:01;20.70;61.70
20706;DHT22;10514;49.468;11.044;2023-09-19T09:37:28;20.70;61.80
20706;DHT22;10514;49.468;11.044;2023-09-19T09:39:56;20.90;61.60
20706;DHT22;10514;49.468;11.044;2023-09-19T09:42:30;21.20;60.80
20706;DHT22;10514;49.468;11.044;2023-09-19T09:45:18;21.30;60.40
20706;DHT22;10514;49.468;11.044;2023-09-19T09:47:46;21.30;60.40
20706;DHT22;10514;49.468;11.044;2023-09-19T09:50:30;21.30;60.10
20706;DHT22;10514;49.468;11.044;2023-09-19T09:53:20;21.50;60.20
20706;DHT22;10514;49.468;11.044;2023-09-19T09:56:08;21.50;59.60
20706;DHT22;10514;49.468;11.044;2023-09-19T09:58:51;21.60;60.30
20706;DHT22;10514;49.468;11.044;2023-09-19T10:01:24;21.50;60.80
20706;DHT22;10514;49.468;11.044;2023-09-19T10:03:57;21.50;61.40
20706;DHT22;10514;49.468;11.044;2023-09-19T10:06:22;21.60;60.90
20706;DHT22;10514;49.468;11.044;2023-09-19T10:09:05;21.50;60.70
20706;DHT22;10514;49.468;11.044;2023-09-19T10:11:31;21.40;60.40
20706;DHT22;10514;49.468;11.044;2023-09-19T10:13:58;21.50;60.50
20706;DHT22;10514;49.468;11.044;2023-09-19T10:16:29;22.00;60.10
20706;DHT22;10514;49.468;11.044;2023-09-19T10:18:58;22.50;58.70
20706;DHT22;10514;49.468;11.044;2023-09-19T10:21:25;23.00;57.20
20706;DHT22;10514;49.468;11.044;2023-09-19T10:23:58;23.60;56.40
20706;DHT22;10514;49.468;11.044;2023-09-19T10:26:26;24.00;54.40
20706;DHT22;10514;49.468;11.044;2023-09-19T10:28:57;24.10;53.90
20706;DHT22;10514;49.468;11.044;2023-09-19T10:31:26;23.80;55.00
20706;DHT22;10514;49.468;11.044;2023-09-19T10:33:53;23.30;55.00
20706;DHT22;10514;49.468;11.044;2023-09-19T10:36:24;23.10;56.60
20706;DHT22;10514;49.468;11.044;2023-09-19T10:38:53;22.70;56.50
20706;DHT22;10514;49.468;11.044;2023-09-19T10:41:22;22.30;56.90
20706;DHT22;10514;49.468;11.044;2023-09-19T10:43:48;22.10;58.90
20706;DHT22;10514;49.468;11.044;2023-09-19T10:46:13;21.90;58.90
20706;DHT22;10514;49.468;11.044;2023-09-19T10:48:40;21.80;60.80
20706;DHT22;10514;49.468;11.044;2023-09-19T10:51:18;21.60;60.20
20706;DHT22;10514;49.468;11.044;2023-09-19T10:53:55;21.70;60.50
20706;DHT22;10514;49.468;11.044;2023-09-19T10:56:48;22.10;61.10
20706;DHT22;10514;49.468;11.044;2023-09-19T10:59:16;22.50;58.20
20706;DHT22;10514;49.468;11.044;2023-09-19T11:04:31;23.00;56.40
20706;DHT22;10514;49.468;11.044;2023-09-19T11:07:14;23.10;51.90
20706;DHT22;10514;49.468;11.044;2023-09-19T11:09:49;23.40;52.30
20706;DHT22;10514;49.468;11.044;2023-09-19T11:12:47;23.70;52.90
20706;DHT22;10514;49.468;11.044;2023-09-19T11:16:02;24.60;54.50
20706;DHT22;10514;49.468;11.044;2023-09-19T11:26:43;25.20;51.20
20706;DHT22;10514;49.468;11.044;2023-09-19T11:29:28;24.60;52.50
20706;DHT22;10514;49.468;11.044;2023-09-19T11:31:55;23.80;53.70
20706;DHT22;10514;49.468;11.044;2023-09-19T11:39:39;22.80;57.20
20706;DHT22;10514;49.468;11.044;2023-09-19T11:42:41;22.60;57.80
20706;DHT22;10514;49.468;11.044;2023-09-19T11:45:06;22.20;58.20
20706;DHT22;10514;49.468;11.044;2023-09-19T11:47:33;22.00;59.60
20706;DHT22;10514;49.468;11.044;2023-09-19T11:50:01;22.00;58.60
20706;DHT22;10514;49.468;11.044;2023-09-19T11:52:28;21.90;57.60
20706;DHT22;10514;49.468;11.044;2023-09-19T11:55:01;21.70;58.10
20706;DHT22;10514;49.468;11.044;2023-09-19T11:57:28;21.60;58.40
20706;DHT22;10514;49.468;11.044;2023-09-19T11:59:55;21.60;58.90
20706;DHT22;10514;49.468;11.044;2023-09-19T12:02:38;21.80;58.90
20706;DHT22;10514;49.468;11.044;2023-09-19T12:05:05;21.90;58.10
20706;DHT22;10514;49.468;11.044;2023-09-19T12:07:42;21.90;57.90
20706;DHT22;10514;49.468;11.044;2023-09-19T12:10:11;21.90;55.90
20706;DHT22;10514;49.468;11.044;2023-09-19T12:12:39;21.80;55.00
20706;DHT22;10514;49.468;11.044;2023-09-19T12:15:10;21.90;56.10
20706;DHT22;10514;49.468;11.044;2023-09-19T12:17:40;22.10;53.00
20706;DHT22;10514;49.468;11.044;2023-09-19T12:20:08;22.10;53.10
20706;DHT22;10514;49.468;11.044;2023-09-19T12:22:44;22.20;53.00
20706;DHT22;10514;49.468;11.044;2023-09-19T12:25:10;22.50;53.80
20706;DHT22;10514;49.468;11.044;2023-09-19T12:27:47;22.60;53.30
20706;DHT22;10514;49.468;11.044;2023-09-19T12:30:14;22.80;51.50
20706;DHT22;10514;49.468;11.044;2023-09-19T12:32:40;23.00;51.80
20706;DHT22;10514;49.468;11.044;2023-09-19T12:35:07;23.20;51.20
20706;DHT22;10514;49.468;11.044;2023-09-19T12:37:36;23.20;50.60
20706;DHT22;10514;49.468;11.044;2023-09-19T12:40:08;23.30;49.70
20706;DHT22;10514;49.468;11.044;2023-09-19T12:42:43;23.30;50.00
20706;DHT22;10514;49.468;11.044;2023-09-19T12:45:10;23.30;50.00
20706;DHT22;10514;49.468;11.044;2023-09-19T12:47:36;23.60;50.50
20706;DHT22;10514;49.468;11.044;2023-09-19T12:50:09;23.80;51.00
20706;DHT22;10514;49.468;11.044;2023-09-19T12:52:52;23.90;49.90
20706;DHT22;10514;49.468;11.044;2023-09-19T12:55:30;23.80;49.70
20706;DHT22;10514;49.468;11.044;2023-09-19T12:58:09;23.90;49.80
20706;DHT22;10514;49.468;11.044;2023-09-19T13:00:39;24.00;50.60
20706;DHT22;10514;49.468;11.044;2023-09-19T13:06:00;24.10;49.60
20706;DHT22;10514;49.468;11.044;2023-09-19T13:08:28;24.00;49.70
20706;DHT22;10514;49.468;11.044;2023-09-19T13:11:17;23.80;50.80
20706;DHT22;10514;49.468;11.044;2023-09-19T13:14:01;23.60;49.40
20706;DHT22;10514;49.468;11.044;2023-09-19T13:17:01;23.50;48.80
20706;DHT22;10514;49.468;11.044;2023-09-19T13:19:40;23.60;50.20
20706;DHT22;10514;49.468;11.044;2023-09-19T13:22:43;23.60;48.70
20706;DHT22;10514;49.468;11.044;2023-09-19T13:25:19;23.50;50.10
20706;DHT22;10514;49.468;11.044;2023-09-19T13:27:55;23.20;50.10
20706;DHT22;10514;49.468;11.044;2023-09-19T13:30:23;23.30;50.40
20706;DHT22;10514;49.468;11.044;2023-09-19T13:33:03;23.20;51.40
20706;DHT22;10514;49.468;11.044;2023-09-19T13:35:29;23.30;51.50
20706;DHT22;10514;49.468;11.044;2023-09-19T13:37:54;23.50;51.20
20706;DHT22;10514;49.468;11.044;2023-09-19T13:40:20;23.60;50.60
20706;DHT22;10514;49.468;11.044;2023-09-19T13:42:45;23.60;49.80
20706;DHT22;10514;49.468;11.044;2023-09-19T13:45:11;23.70;49.40
20706;DHT22;10514;49.468;11.044;2023-09-19T13:47:38;23.30;50.10
20706;DHT22;10514;49.468;11.044;2023-09-19T13:50:04;23.10;50.90
20706;DHT22;10514;49.468;11.044;2023-09-19T13:52:31;22.90;52.00
20706;DHT22;10514;49.468;11.044;2023-09-19T13:54:57;23.00;52.80
20706;DHT22;10514;49.468;11.044;2023-09-19T13:57:23;23.30;51.30
20706;DHT22;10514;49.468;11.044;2023-09-19T13:59:49;23.40;51.50
20706;DHT22;10514;49.468;11.044;2023-09-19T14:02:15;23.50;51.90
20706;DHT22;10514;49.468;11.044;2023-09-19T14:04:43;23.50;51.50
20706;DHT22;10514;49.468;11.044;2023-09-19T14:07:09;23.50;50.90
20706;DHT22;10514;49.468;11.044;2023-09-19T14:09:36;23.40;50.30
20706;DHT22;10514;49.468;11.044;2023-09-19T14:12:02;23.30;50.70
20706;DHT22;10514;49.468;11.044;2023-09-19T14:14:28;23.50;49.50
20706;DHT22;10514;49.468;11.044;2023-09-19T14:16:53;23.60;49.70
20706;DHT22;10514;49.468;11.044;2023-09-19T14:19:19;23.60;50.20
20706;DHT22;10514;49.468;11.044;2023-09-19T14:21:44;23.80;49.70
20706;DHT22;10514;49.468;11.044;2023-09-19T14:24:10;23.80;50.00
20706;DHT22;10514;49.468;11.044;2023-09-19T14:26:37;23.80;50.10
20706;DHT22;10514;49.468;11.044;2023-09-19T14:29:02;23.80;49.40
20706;DHT22;10514;49.468;11.044;2023-09-19T14:31:28;23.70;49.70
20706;DHT22;10514;49.468;11.044;2023-09-19T14:33:57;23.70;49.60
20706;DHT22;10514;49.468;11.044;2023-09-19T14:36:22;23.70;49.50
20706;DHT22;10514;49.468;11.044;2023-09-19T14:38:52;23.70;48.50
20706;DHT22;10514;49.468;11.044;2023-09-19T14:41:20;23.60;49.40
20706;DHT22;10514;49.468;11.044;2023-09-19T14:43:45;23.60;50.20
20706;DHT22;10514;49.468;11.044;2023-09-19T14:46:11;23.50;50.40
20706;DHT22;10514;49.468;11.044;2023-09-19T14:48:37;23.60;51.20
20706;DHT22;10514;49.468;11.044;2023-09-19T14:51:07;23.50;49.80
20706;DHT22;10514;49.468;11.044;2023-09-19T14:53:35;23.50;49.40
20706;DHT22;10514;49.468;11.044;2023-09-19T14:56:03;23.40;49.80
20706;DHT22;10514;49.468;11.044;2023-09-19T14:58:30;23.20;50.40
20706;DHT22;10514;49.468;11.044;2023-09-19T15:03:28;23.10;50.50
20706;DHT22;10514;49.468;11.044;2023-09-19T15:05:59;23.00;50.50
20706;DHT22;10514;49.468;11.044;2023-09-19T15:08:25;22.80;51.20
20706;DHT22;10514;49.468;11.044;2023-09-19T15:10:51;22.60;52.30
20706;DHT22;10514;49.468;11.044;2023-09-19T15:13:18;22.60;52.40
20706;DHT22;10514;49.468;11.044;2023-09-19T15:15:44;22.60;52.40
20706;DHT22;10514;49.468;11.044;2023-09-19T15:18:12;22.60;52.50
20706;DHT22;10514;49.468;11.044;2023-09-19T15:20:45;22.60;52.50
20706;DHT22;10514;49.468;11.044;2023-09-19T15:23:11;22.60;51.50
20706;DHT22;10514;49.468;11.044;2023-09-19T15:25:38;22.50;52.20
20706;DHT22;10514;49.468;11.044;2023-09-19T15:28:05;22.50;51.80
20706;DHT22;10514;49.468;11.044;2023-09-19T15:30:37;22.50;52.00
20706;DHT22;10514;49.468;11.044;2023-09-19T15:33:03;22.40;51.60
20706;DHT22;10514;49.468;11.044;2023-09-19T15:35:29;22.30;51.60
20706;DHT22;10514;49.468;11.044;2023-09-19T15:37:55;22.10;52.00
20706;DHT22;10514;49.468;11.044;2023-09-19T15:40:21;22.00;53.30
20706;DHT22;10514;49.468;11.044;2023-09-19T15:42:49;22.00;53.90
20706;DHT22;10514;49.468;11.044;2023-09-19T15:45:15;21.80;53.50
20706;DHT22;10514;49.468;11.044;2023-09-19T15:47:41;21.60;54.20
20706;DHT22;10514;49.468;11.044;2023-09-19T15:50:08;21.40;54.50
20706;DHT22;10514;49.468;11.044;2023-09-19T15:52:39;21.30;53.90
20706;DHT22;10514;49.468;11.044;2023-09-19T15:55:05;21.20;54.40